createdAt,value
2023-02-01T00:01:26.096Z,21.83
2023-02-01T00:03:54.421Z,29.67
2023-02-01T00:06:22.773Z,29.55
2023-02-01T00:08:51.018Z,23.42
2023-02-01T00:11:20.666Z,34.42
2023-02-01T00:13:49.325Z,29.83
2023-02-01T00:16:19.573Z,34.38
2023-02-01T00:18:48.932Z,28.23
2023-02-01T00:21:18.845Z,29.42
2023-02-01T00:23:47.557Z,26.15
2023-02-01T00:26:18.492Z,29.17
2023-02-01T00:28:48.462Z,34.45
2023-02-01T00:31:17.104Z,32.30
2023-02-01T00:33:48.666Z,35.53
2023-02-01T00:36:17.883Z,29.75
2023-02-01T00:38:46.505Z,31.25
2023-02-01T00:41:16.958Z,28.10
2023-02-01T00:43:45.818Z,31.60
2023-02-01T00:46:17.018Z,25.45
2023-02-01T00:48:45.424Z,24.73
2023-02-01T00:51:15.772Z,37.38
2023-02-01T00:53:44.263Z,28.00
2023-02-01T00:56:12.590Z,31.02
2023-02-01T00:58:41.302Z,36.83
2023-02-01T01:01:11.696Z,27.30
2023-02-01T01:03:43.882Z,30.83
2023-02-01T01:06:14.204Z,27.52
2023-02-01T01:08:43.677Z,27.45
2023-02-01T01:11:14.065Z,25.52
2023-02-01T01:13:43.020Z,31.07
2023-02-01T01:16:12.947Z,27.27
2023-02-01T01:18:43.249Z,24.73
2023-02-01T01:21:14.816Z,27.48
2023-02-01T01:23:43.426Z,26.90
2023-02-01T01:26:18.886Z,23.02
2023-02-01T01:28:47.717Z,25.60
2023-02-01T01:31:18.416Z,29.17
2023-02-01T01:33:50.453Z,22.98
2023-02-01T01:36:18.957Z,25.45
2023-02-01T01:38:47.314Z,23.92
2023-02-01T01:41:17.990Z,35.92
2023-02-01T01:43:53.554Z,35.55
2023-02-01T01:46:25.081Z,28.38
2023-02-01T01:49:00.570Z,25.92
2023-02-01T01:51:32.319Z,25.67
2023-02-01T01:54:04.845Z,22.98
2023-02-01T01:56:35.677Z,27.25
2023-02-01T01:59:06.538Z,25.25
2023-02-01T02:01:34.975Z,34.42
2023-02-01T02:04:05.885Z,25.85
2023-02-01T02:06:41.163Z,37.88
2023-02-01T02:09:09.460Z,29.92
2023-02-01T02:11:37.852Z,29.70
2023-02-01T02:14:10.632Z,26.60
2023-02-01T02:17:01.860Z,34.72
2023-02-01T02:20:27.290Z,30.15
2023-02-01T02:23:27.821Z,23.85
2023-02-01T02:26:40.416Z,30.98
2023-02-01T02:29:51.617Z,29.17
2023-02-01T02:32:46.179Z,23.67
2023-02-01T02:35:23.900Z,27.08
2023-02-01T02:37:57.907Z,25.27
2023-02-01T02:40:33.927Z,24.30
2023-02-01T02:43:32.481Z,22.63
2023-02-01T02:46:30.097Z,26.98
2023-02-01T02:49:04.943Z,24.27
2023-02-01T02:51:57.936Z,29.20
2023-02-01T02:54:48.785Z,25.67
2023-02-01T02:57:39.656Z,25.40
2023-02-01T03:00:30.154Z,23.52
2023-02-01T03:03:15.962Z,27.25
2023-02-01T03:05:46.760Z,27.58
2023-02-01T03:08:18.658Z,26.40
2023-02-01T03:10:53.312Z,23.00
2023-02-01T03:13:32.555Z,27.85
2023-02-01T03:16:06.973Z,23.17
2023-02-01T03:18:41.198Z,25.13
2023-02-01T03:21:12.847Z,24.13
2023-02-01T03:23:46.198Z,22.50
2023-02-01T03:26:17.275Z,29.83
2023-02-01T03:28:50.261Z,21.83
2023-02-01T03:31:19.065Z,27.70
2023-02-01T03:33:47.467Z,27.10
2023-02-01T03:36:23.854Z,25.63
2023-02-01T03:39:01.251Z,27.23
2023-02-01T03:41:35.986Z,29.93
2023-02-01T03:44:11.181Z,28.77
2023-02-01T03:46:42.889Z,27.45
2023-02-01T03:49:21.805Z,22.92
2023-02-01T03:51:53.043Z,24.70
2023-02-01T03:54:23.606Z,24.73
2023-02-01T03:56:52.989Z,32.75
2023-02-01T03:59:21.434Z,26.97
2023-02-01T04:01:49.932Z,24.95
2023-02-01T04:04:21.888Z,26.13
2023-02-01T04:06:54.467Z,26.42
2023-02-01T04:09:24.551Z,27.05
2023-02-01T04:11:52.876Z,26.17
2023-02-01T04:14:21.112Z,24.95
2023-02-01T04:16:49.660Z,29.55
2023-02-01T04:19:18.029Z,24.15
2023-02-01T04:21:46.287Z,20.97
2023-02-01T04:24:14.536Z,21.50
2023-02-01T04:26:44.316Z,21.63
2023-02-01T04:29:12.841Z,26.38
2023-02-01T04:31:41.375Z,15.50
2023-02-01T04:34:09.773Z,14.27
2023-02-01T04:36:38.077Z,19.53
2023-02-01T04:39:06.553Z,24.75
2023-02-01T04:41:34.968Z,25.70
2023-02-01T04:44:04.804Z,23.88
2023-02-01T04:46:33.156Z,25.83
2023-02-01T04:49:01.487Z,24.83
2023-02-01T04:51:29.755Z,25.85
2023-02-01T04:53:58.032Z,30.03
2023-02-01T04:56:26.315Z,30.15
2023-02-01T04:58:54.653Z,21.63
2023-02-01T05:01:25.581Z,35.58
2023-02-01T05:03:53.962Z,31.98
2023-02-01T05:06:22.497Z,24.60
2023-02-01T05:08:50.794Z,27.43
2023-02-01T05:11:32.887Z,28.58
2023-02-01T05:14:02.643Z,26.65
2023-02-01T05:16:32.604Z,27.50
2023-02-01T05:19:00.889Z,27.08
2023-02-01T05:21:29.214Z,27.05
2023-02-01T05:24:16.976Z,26.77
2023-02-01T05:26:45.696Z,32.78
2023-02-01T05:35:01.255Z,30.90
2023-02-01T05:49:01.329Z,28.77
2023-02-01T05:55:53.699Z,35.45
2023-02-01T05:59:39.941Z,22.80
2023-02-01T06:27:37.204Z,23.92
2023-02-01T06:30:11.095Z,27.67
2023-02-01T06:32:40.346Z,25.58
2023-02-01T06:35:11.353Z,31.05
2023-02-01T06:37:39.698Z,29.27
2023-02-01T06:40:09.665Z,27.20
2023-02-01T06:42:37.807Z,27.60
2023-02-01T06:45:07.712Z,35.25
2023-02-01T06:47:37.120Z,25.23
2023-02-01T06:50:05.843Z,32.05
2023-02-01T06:52:33.890Z,34.03
2023-02-01T06:55:01.945Z,28.23
2023-02-01T06:57:31.853Z,31.25
2023-02-01T07:00:00.472Z,28.08
2023-02-01T07:02:28.514Z,36.63
2023-02-01T07:04:57.915Z,33.47
2023-02-01T07:07:26.016Z,32.17
2023-02-01T07:09:54.190Z,42.75
2023-02-01T07:12:22.202Z,32.72
2023-02-01T07:14:50.188Z,33.83
2023-02-01T07:17:18.271Z,29.00
2023-02-01T07:19:46.271Z,30.17
2023-02-01T07:22:18.338Z,32.33
2023-02-01T07:24:46.714Z,25.17
2023-02-01T07:27:14.763Z,30.58
2023-02-01T07:29:42.784Z,37.33
2023-02-01T07:32:10.841Z,29.40
2023-02-01T07:34:38.922Z,31.90
2023-02-01T07:37:07.582Z,28.03
2023-02-01T07:39:36.999Z,25.90
2023-02-01T07:42:05.184Z,31.77
2023-02-01T07:44:33.291Z,30.50
2023-02-01T07:47:01.269Z,30.38
2023-02-01T07:49:29.283Z,29.23
2023-02-01T07:51:57.262Z,23.17
2023-02-01T07:54:25.293Z,27.38
2023-02-01T07:56:54.753Z,31.23
2023-02-01T07:59:22.948Z,19.65
2023-02-01T08:01:50.071Z,31.40
2023-02-01T08:04:18.145Z,28.00
2023-02-01T08:06:46.148Z,30.48
2023-02-01T08:09:14.321Z,25.13
2023-02-01T08:11:42.374Z,28.23
2023-02-01T08:14:11.802Z,30.23
2023-02-01T08:16:40.340Z,30.33
2023-02-01T08:19:08.435Z,28.17
2023-02-01T08:21:38.420Z,32.90
2023-02-01T08:24:07.910Z,28.65
2023-02-01T08:26:36.445Z,33.38
2023-02-01T08:29:07.024Z,28.02
2023-02-01T08:31:36.865Z,31.27
2023-02-01T08:34:05.784Z,25.50
2023-02-01T08:36:34.741Z,25.00
2023-02-01T08:39:06.621Z,30.35
2023-02-01T08:41:34.856Z,29.45
2023-02-01T08:44:02.896Z,25.35
2023-02-01T08:46:30.989Z,30.17
2023-02-01T08:49:00.425Z,30.60
2023-02-01T08:51:28.452Z,29.30
2023-02-01T08:53:56.459Z,27.30
2023-02-01T08:56:24.585Z,31.38
2023-02-01T08:58:52.759Z,26.67
2023-02-01T09:01:20.879Z,30.88
2023-02-01T09:03:49.075Z,29.80
2023-02-01T09:06:18.638Z,34.13
2023-02-01T09:08:47.046Z,30.42
2023-02-01T09:11:17.279Z,27.48
2023-02-01T09:13:45.560Z,27.52
2023-02-01T09:16:14.105Z,27.67
2023-02-01T09:18:50.923Z,28.50
2023-02-01T09:21:25.982Z,26.27
2023-02-01T09:23:54.134Z,25.70
2023-02-01T09:26:30.323Z,28.65
2023-02-01T09:29:00.172Z,25.38
2023-02-01T09:31:31.390Z,27.98
2023-02-01T09:33:59.668Z,21.00
2023-02-01T09:36:31.190Z,34.00
2023-02-01T09:38:59.771Z,20.08
2023-02-01T09:41:57.810Z,24.92
2023-02-01T09:44:51.201Z,24.70
2023-02-01T09:47:22.681Z,29.30
2023-02-01T09:49:57.083Z,29.88
2023-02-01T09:52:33.340Z,21.38
2023-02-01T09:55:05.680Z,29.75
2023-02-01T09:57:44.044Z,25.33
2023-02-01T10:00:19.966Z,23.90
2023-02-01T10:02:48.002Z,30.98
2023-02-01T10:05:19.177Z,30.13
2023-02-01T10:07:59.672Z,29.35
2023-02-01T10:10:32.896Z,25.10
2023-02-01T10:13:15.147Z,19.38
2023-02-01T10:15:56.634Z,23.92
2023-02-01T10:18:53.942Z,32.40
2023-02-01T10:21:32.658Z,31.15
2023-02-01T10:24:18.464Z,24.45
2023-02-01T10:26:52.042Z,24.02
2023-02-01T10:29:24.661Z,16.25
2023-02-01T10:31:53.042Z,20.63
2023-02-01T10:34:24.808Z,22.67
2023-02-01T10:36:57.290Z,18.40
2023-02-01T10:39:26.901Z,27.55
2023-02-01T10:41:56.934Z,19.75
2023-02-01T10:44:28.684Z,23.52
2023-02-01T10:46:56.875Z,19.13
2023-02-01T10:49:31.387Z,18.02
2023-02-01T10:52:04.085Z,24.73
2023-02-01T10:54:39.301Z,19.48
2023-02-01T10:57:10.703Z,22.45
2023-02-01T10:59:39.495Z,24.50
2023-02-01T11:02:18.315Z,28.57
2023-02-01T11:04:46.353Z,23.10
2023-02-01T11:07:27.334Z,23.98
2023-02-01T11:09:58.946Z,19.90
2023-02-01T11:12:33.117Z,19.10
2023-02-01T11:15:05.729Z,22.02
2023-02-01T11:17:37.323Z,18.92
2023-02-01T11:20:08.839Z,20.17
2023-02-01T11:22:36.915Z,11.57
2023-02-01T11:25:12.376Z,8.30
2023-02-01T11:27:53.170Z,8.00
2023-02-01T11:30:34.041Z,14.47
2023-02-01T11:33:05.557Z,5.10
2023-02-01T11:35:36.001Z,6.83
2023-02-01T11:38:16.298Z,2.53
2023-02-01T11:40:45.694Z,5.47
2023-02-01T11:43:19.871Z,5.87
2023-02-01T11:45:56.960Z,5.13
2023-02-01T11:48:28.453Z,9.27
2023-02-01T11:51:08.576Z,9.87
2023-02-01T11:53:53.087Z,8.77
2023-02-01T11:56:32.994Z,6.63
2023-02-01T11:59:30.987Z,6.33
2023-02-01T12:02:14.167Z,6.57
2023-02-01T12:05:06.840Z,5.47
2023-02-01T12:07:54.104Z,7.30
2023-02-01T12:10:32.672Z,5.80
2023-02-01T12:13:16.391Z,9.40
2023-02-01T12:15:55.612Z,6.43
2023-02-01T12:18:41.156Z,9.10
2023-02-01T12:21:29.082Z,15.00
2023-02-01T12:24:14.612Z,9.70
2023-02-01T12:27:05.863Z,13.80
2023-02-01T12:29:59.473Z,9.73
2023-02-01T12:32:52.278Z,9.60
2023-02-01T12:35:44.897Z,11.87
2023-02-01T12:38:27.291Z,8.40
2023-02-01T12:41:05.559Z,8.43
2023-02-01T12:43:40.885Z,13.93
2023-02-01T12:46:15.437Z,11.50
2023-02-01T12:48:53.993Z,14.60
2023-02-01T12:51:26.855Z,13.17
2023-02-01T12:54:01.103Z,15.20
2023-02-01T12:57:02.741Z,9.33
2023-02-01T12:59:36.927Z,13.13
2023-02-01T13:02:16.721Z,13.83
2023-02-01T13:04:59.066Z,12.23
2023-02-01T13:07:32.409Z,18.02
2023-02-01T13:10:07.866Z,15.52
2023-02-01T13:12:42.285Z,14.38
2023-02-01T13:15:16.154Z,18.08
2023-02-01T13:17:48.513Z,23.17
2023-02-01T13:20:23.581Z,18.95
2023-02-01T13:22:56.536Z,24.25
2023-02-01T13:25:33.867Z,27.38
2023-02-01T13:28:06.387Z,19.50
2023-02-01T13:30:49.842Z,23.58
2023-02-01T13:33:54.012Z,26.13
2023-02-01T13:36:45.130Z,28.30
2023-02-01T13:39:46.049Z,23.77
2023-02-01T13:42:21.145Z,27.58
2023-02-01T13:44:52.616Z,23.20
2023-02-01T13:47:30.274Z,29.85
2023-02-01T13:50:03.931Z,36.85
2023-02-01T13:52:40.205Z,29.30
2023-02-01T13:55:31.699Z,23.80
2023-02-01T13:58:20.744Z,25.00
2023-02-01T14:00:51.980Z,25.58
2023-02-01T14:03:22.491Z,27.95
2023-02-01T14:06:03.847Z,27.05
2023-02-01T14:09:07.705Z,34.97
2023-02-01T14:11:39.571Z,28.90
2023-02-01T14:14:47.090Z,32.72
2023-02-01T14:17:42.239Z,27.08
2023-02-01T14:20:54.318Z,30.60
2023-02-01T14:23:30.975Z,23.48
2023-02-01T14:26:12.405Z,33.03
2023-02-01T14:29:00.561Z,27.98
2023-02-01T14:31:41.413Z,26.80
2023-02-01T14:34:21.211Z,26.73
2023-02-01T14:36:53.995Z,25.13
2023-02-01T14:39:28.642Z,30.40
2023-02-01T14:42:00.286Z,24.30
2023-02-01T14:44:38.769Z,27.00
2023-02-01T14:47:32.942Z,27.58
2023-02-01T14:50:27.093Z,30.42
2023-02-01T14:53:10.864Z,25.27
2023-02-01T14:55:43.885Z,27.63
2023-02-01T14:58:20.464Z,27.63
2023-02-01T15:00:54.617Z,33.78
2023-02-01T15:03:47.629Z,27.58
2023-02-01T15:06:29.537Z,31.00
2023-02-01T15:09:00.706Z,27.30
2023-02-01T15:11:30.292Z,27.70
2023-02-01T15:14:00.844Z,28.45
2023-02-01T15:16:29.048Z,23.58
2023-02-01T15:19:11.108Z,23.60
2023-02-01T15:21:47.923Z,23.90
2023-02-01T15:24:20.607Z,29.40
2023-02-01T15:26:50.632Z,36.72
2023-02-01T15:29:19.474Z,24.27
2023-02-01T15:31:51.764Z,28.02
2023-02-01T15:34:20.948Z,31.95
2023-02-01T15:37:02.420Z,22.08
2023-02-01T15:39:33.353Z,28.55
2023-02-01T15:42:12.561Z,29.60
2023-02-01T15:44:42.548Z,32.30
2023-02-01T15:47:17.128Z,23.73
2023-02-01T15:49:47.948Z,27.20
2023-02-01T15:52:24.583Z,25.05
2023-02-01T15:54:56.151Z,24.02
2023-02-01T15:57:31.779Z,24.55
2023-02-01T16:00:02.283Z,29.55
2023-02-01T16:02:45.568Z,28.13
2023-02-01T16:05:36.528Z,24.70
2023-02-01T16:08:09.088Z,16.83
2023-02-01T16:10:41.956Z,27.10
2023-02-01T16:13:12.250Z,22.73
2023-02-01T16:15:40.548Z,21.83
2023-02-01T16:18:10.558Z,27.15
2023-02-01T16:20:40.067Z,28.83
2023-02-01T16:23:09.601Z,25.17
2023-02-01T16:25:38.667Z,20.17
2023-02-01T16:28:06.804Z,29.40
2023-02-01T16:30:37.236Z,20.90
2023-02-01T16:33:06.288Z,25.77
2023-02-01T16:35:37.457Z,27.48
2023-02-01T16:38:09.668Z,27.48
2023-02-01T16:40:37.977Z,34.60
2023-02-01T16:43:14.021Z,28.10
2023-02-01T16:45:44.809Z,31.25
2023-02-01T16:48:21.429Z,40.00
2023-02-01T16:50:51.543Z,24.58
2023-02-01T16:53:20.547Z,31.60
2023-02-01T16:55:50.462Z,30.55
2023-02-01T16:58:18.995Z,37.83
2023-02-01T17:00:49.495Z,29.50
2023-02-01T17:03:18.453Z,37.78
2023-02-01T17:05:49.208Z,32.03
2023-02-01T17:08:20.590Z,26.65
2023-02-01T17:10:48.658Z,27.45
2023-02-01T17:13:18.152Z,25.15
2023-02-01T17:15:53.802Z,29.80
2023-02-01T17:18:21.947Z,28.40
2023-02-01T17:20:52.212Z,31.80
2023-02-01T17:23:20.869Z,25.80
2023-02-01T17:25:49.343Z,23.60
2023-02-01T17:28:17.456Z,24.23
2023-02-01T17:30:45.696Z,33.13
2023-02-01T17:33:22.654Z,30.05
2023-02-01T17:35:51.077Z,25.38
2023-02-01T17:38:19.702Z,30.50
2023-02-01T17:40:47.788Z,28.77
2023-02-01T17:43:17.107Z,24.23
2023-02-01T17:45:51.696Z,29.23
2023-02-01T17:48:22.304Z,26.83
2023-02-01T17:50:54.605Z,24.85
2023-02-01T17:53:24.638Z,24.85
2023-02-01T17:55:53.379Z,22.67
2023-02-01T17:58:22.767Z,29.05
2023-02-01T18:00:51.591Z,18.92
2023-02-01T18:03:26.877Z,26.77
2023-02-01T18:05:56.757Z,24.98
2023-02-01T18:08:27.270Z,26.30
2023-02-01T18:10:59.827Z,29.33
2023-02-01T18:13:27.893Z,28.55
2023-02-01T18:15:55.925Z,32.22
2023-02-01T18:18:25.329Z,31.38
2023-02-01T18:20:53.561Z,22.67
2023-02-01T18:23:23.255Z,23.27
2023-02-01T18:25:52.664Z,21.60
2023-02-01T18:28:21.187Z,28.52
2023-02-01T18:30:51.633Z,27.70
2023-02-01T18:33:22.031Z,24.55
2023-02-01T18:35:51.472Z,25.13
2023-02-01T18:38:19.549Z,24.88
2023-02-01T18:40:51.073Z,23.00
2023-02-01T18:43:19.327Z,32.90
2023-02-01T18:45:48.333Z,30.33
2023-02-01T18:48:19.517Z,31.98
2023-02-01T18:50:48.100Z,24.00
2023-02-01T18:53:20.064Z,25.30
2023-02-01T18:55:48.726Z,25.92
2023-02-01T18:58:18.478Z,26.27
2023-02-01T19:00:47.830Z,23.10
2023-02-01T19:03:18.520Z,27.65
2023-02-01T19:05:47.376Z,22.67
2023-02-01T19:08:15.420Z,23.60
2023-02-01T19:10:45.289Z,26.90
2023-02-01T19:13:14.315Z,22.85
2023-02-01T19:15:42.637Z,19.75
2023-02-01T19:18:11.687Z,24.17
2023-02-01T19:20:45.530Z,28.98
2023-02-01T19:23:14.026Z,26.15
2023-02-01T19:25:47.015Z,24.75
2023-02-01T19:28:15.143Z,25.45
2023-02-01T19:30:44.905Z,24.77
2023-02-01T19:33:13.221Z,23.27
2023-02-01T19:35:41.530Z,29.42
2023-02-01T19:38:09.977Z,22.63
2023-02-01T19:40:38.465Z,28.60
2023-02-01T19:43:07.892Z,24.67
2023-02-01T19:45:35.973Z,27.30
2023-02-01T19:48:07.421Z,28.42
2023-02-01T19:50:35.606Z,30.42
2023-02-01T19:53:03.718Z,32.03
2023-02-01T19:55:32.153Z,27.40
2023-02-01T19:58:02.302Z,25.13
2023-02-01T20:00:30.921Z,29.55
2023-02-01T20:02:59.422Z,24.40
2023-02-01T20:05:27.520Z,36.15
2023-02-01T20:07:55.546Z,23.17
2023-02-01T20:10:23.725Z,25.52
2023-02-01T20:12:51.794Z,29.40
2023-02-01T20:15:22.060Z,26.45
2023-02-01T20:17:51.807Z,35.30
2023-02-01T20:20:20.234Z,22.67
2023-02-01T20:22:48.311Z,22.27
2023-02-01T20:25:16.515Z,29.98
2023-02-01T20:27:45.402Z,21.40
2023-02-01T20:30:19.874Z,27.95
2023-02-01T20:32:49.572Z,29.13
2023-02-01T20:35:19.266Z,23.65
2023-02-01T20:37:48.953Z,20.85
2023-02-01T20:40:17.457Z,24.73
2023-02-01T20:42:45.506Z,24.63
2023-02-01T20:45:13.537Z,14.65
2023-02-01T20:47:42.358Z,22.50
2023-02-01T20:50:12.070Z,22.70
2023-02-01T20:52:41.446Z,20.23
2023-02-01T20:55:10.202Z,26.02
2023-02-01T20:57:38.293Z,21.13
2023-02-01T21:00:10.072Z,17.67
2023-02-01T21:02:38.381Z,20.42
2023-02-01T21:05:07.455Z,27.67
2023-02-01T21:07:35.494Z,22.88
2023-02-01T21:10:05.643Z,27.63
2023-02-01T21:12:33.709Z,25.52
2023-02-01T21:15:01.782Z,27.23
2023-02-01T21:17:31.525Z,29.25
2023-02-01T21:19:59.804Z,25.55
2023-02-01T21:22:27.849Z,22.98
2023-02-01T21:24:55.947Z,29.13
2023-02-01T21:27:26.076Z,32.00
2023-02-01T21:29:54.109Z,26.05
2023-02-01T21:32:22.177Z,24.77
2023-02-01T21:34:50.212Z,23.90
2023-02-01T21:37:18.239Z,32.03
2023-02-01T21:39:46.440Z,26.70
2023-02-01T21:42:18.629Z,29.77
2023-02-01T21:44:48.500Z,29.25
2023-02-01T21:47:17.886Z,30.20
2023-02-01T21:49:46.487Z,26.80
2023-02-01T21:52:16.082Z,31.65
2023-02-01T21:54:44.897Z,27.00
2023-02-01T21:57:13.049Z,24.80
2023-02-01T21:59:41.984Z,22.80
2023-02-01T22:02:14.816Z,22.05
2023-02-01T22:04:43.154Z,22.23
2023-02-01T22:07:11.586Z,39.08
2023-02-01T22:09:40.038Z,34.42
2023-02-01T22:12:09.211Z,32.10
2023-02-01T22:14:37.309Z,31.40
2023-02-01T22:17:05.459Z,29.35
2023-02-01T22:19:35.712Z,25.38
2023-02-01T22:22:03.898Z,26.52
2023-02-01T22:24:31.964Z,27.88
2023-02-01T22:27:13.674Z,28.05
2023-02-01T22:29:43.636Z,34.75
2023-02-01T22:32:13.832Z,20.08
2023-02-01T22:34:43.390Z,21.98
2023-02-01T22:37:12.294Z,26.50
2023-02-01T22:39:41.088Z,21.35
2023-02-01T22:42:09.176Z,32.03
2023-02-01T22:44:37.276Z,28.00
2023-02-01T22:47:05.460Z,28.30
2023-02-01T22:49:33.481Z,26.42
2023-02-01T22:52:02.933Z,29.70
2023-02-01T22:54:30.984Z,22.48
2023-02-01T22:57:00.191Z,26.05
2023-02-01T22:59:28.655Z,19.55
2023-02-01T23:01:56.662Z,35.65
2023-02-01T23:04:24.791Z,25.00
2023-02-01T23:06:53.191Z,30.50
2023-02-01T23:09:24.714Z,26.70
2023-02-01T23:11:53.602Z,26.30
2023-02-01T23:14:21.631Z,26.70
2023-02-01T23:16:51.445Z,24.75
2023-02-01T23:19:20.535Z,27.65
2023-02-01T23:21:48.964Z,27.08
2023-02-01T23:24:17.043Z,26.98
2023-02-01T23:26:46.564Z,28.98
2023-02-01T23:29:19.149Z,24.10
2023-02-01T23:31:47.374Z,29.85
2023-02-01T23:34:15.629Z,28.85
2023-02-01T23:36:43.691Z,25.30
2023-02-01T23:39:11.708Z,29.02
2023-02-01T23:41:39.747Z,27.27
2023-02-01T23:44:09.517Z,26.25
2023-02-01T23:46:39.573Z,33.60
2023-02-01T23:49:09.455Z,25.77
2023-02-01T23:51:37.956Z,27.60
2023-02-01T23:54:06.490Z,27.60
2023-02-01T23:56:36.794Z,30.10
2023-02-01T23:59:08.761Z,26.25
